ilmateenistus.ee keskkonnaagentuur.ee
EETN Tallinna lennuväli
FTEO31 EETN 301700
TAF EETN 301700Z 3018/0118 28008KT 9999 SCT035 BECMG 3019/3021
    VRB02KT PROB40 TEMPO 3021/0103 1200 BR BCFG BKN003 TEMPO 0104/0115
    4000 SHRA SCT013 SCT020CB BKN040=

METAR EETN 302250Z 09003KT CAVOK 14/13 Q1014 =
Tallinna lennuväli
EEKA Kärdla lennuväli
METAR EEKA 302150Z NIL=
Kärdla lennuväli
EEKE Kuressaare lennuväli
METAR EEKE 302250Z AUTO 17003KT 9999NDV NSC 13/12 Q1014=
Kuressaare lennuväli
EEPU Pärnu lennuväli
METAR EEPU 302150Z NIL=
Pärnu lennuväli
EETU Tartu lennuväli
METAR EETU 302250Z AUTO 00000KT 9999 NCD 14/12 Q1015=
Tartu lennuväli